»·PEaware :: UAL3879 KDEN-KLAX

UAL3879 :: KDEN-KLAX

FLIGHT INFORMATION

Flight Status: Arrived
Operator:
United Airlines
More flights by this operator :: More flights under this callsign
Pilot: Michael A. (15967)
Aircraft: BOEING 737-800
(B738)
More flights by this aircraft type
Origin: KDEN Denver Intl
United States
Destination: KLAX Los Angeles Intl
United States
More flights between these airports :: More routes between these airports
Route: +CONNR4 DBL CHESZ Q88 HAKMN ANJLL2
File this flight plan on PilotEdge
Remarks:
Altitude:
(Current/Filed)
36,000ft
Speed:
(Current/Filed)
460kts
Departed: 13-Feb-18 07:14 PM
Arrived: 13-Feb-18 09:29 PM
Distance/Time
Traveled:
747nm/2:14
Distance/Time
To Go:
Arrived

Flight Plot

Page will automatically refresh every two minutes.

Flight plan parsing failed; only flown route is shown


Map Options




Map Legend


Flown Route
Filed Route
Departure Airport
Arrival Airport
Navaid (VOR, NDB)
Fix

Horizontal Profiles

Position Reports

Time Latitude Longitude Heading Altitude Ground
Speed
13-Feb-18 18:44 39.858129 -104.672806 0 5324ft 0kts
13-Feb-18 18:45 39.858129 -104.672806 0 5324ft 0kts
13-Feb-18 18:46 39.858129 -104.672806 0 5324ft 0kts
13-Feb-18 18:47 39.858129 -104.672806 0 5324ft 0kts
13-Feb-18 18:48 39.858129 -104.672806 0 5324ft 0kts
13-Feb-18 18:49 39.858129 -104.672806 0 5324ft 0kts
13-Feb-18 18:50 39.858129 -104.672806 0 5324ft 0kts
13-Feb-18 18:51 39.858129 -104.672806 0 5324ft 0kts
13-Feb-18 18:52 39.858129 -104.672806 0 5324ft 0kts
13-Feb-18 18:53 39.858129 -104.672806 0 5324ft 0kts
13-Feb-18 18:54 39.858129 -104.672806 0 5324ft 0kts
13-Feb-18 18:55 39.858129 -104.672806 0 5324ft 0kts
13-Feb-18 18:56 39.858129 -104.672806 0 5324ft 0kts
13-Feb-18 18:57 39.858129 -104.672806 0 5324ft 0kts
13-Feb-18 18:58 39.858129 -104.672806 0 5324ft 0kts
13-Feb-18 18:59 39.858129 -104.672806 0 5324ft 0kts
13-Feb-18 19:00 39.858129 -104.672806 0 5324ft 0kts
13-Feb-18 19:01 39.858129 -104.672806 0 5324ft 0kts
13-Feb-18 19:02 39.858129 -104.672806 0 5325ft 0kts
13-Feb-18 19:03 39.857584 -104.672821 16 5325ft 2kts
13-Feb-18 19:04 39.857308 -104.673293 92 5325ft 1kts
13-Feb-18 19:05 39.857310 -104.672921 90 5324ft 0kts
13-Feb-18 19:06 39.857310 -104.672921 90 5324ft 0kts
13-Feb-18 19:07 39.857289 -104.670055 90 5324ft 20kts
13-Feb-18 19:08 39.856769 -104.664636 89 5324ft 0kts
13-Feb-18 19:09 39.856769 -104.664632 88 5324ft 0kts
13-Feb-18 19:10 39.856784 -104.662792 77 5324ft 9kts
13-Feb-18 19:11 39.860113 -104.662310 0 5324ft 17kts
13-Feb-18 19:12 39.866095 -104.662242 0 5324ft 25kts
13-Feb-18 19:13 39.869854 -104.662166 359 5324ft 6kts
13-Feb-18 19:14 39.869231 -104.663372 180 5324ft 17kts
13-Feb-18 19:15 39.862599 -104.663447 180 5324ft 27kts
13-Feb-18 19:16 39.861034 -104.661708 89 5324ft 0kts
13-Feb-18 19:17 39.861034 -104.661708 89 5324ft 0kts
13-Feb-18 19:18 39.860796 -104.660280 152 5324ft 8kts
13-Feb-18 19:21 39.753947 -104.754246 267 10054ft 283kts
13-Feb-18 19:22 39.756482 -104.856246 269 13607ft 287kts
13-Feb-18 19:23 39.765655 -104.968600 278 16215ft 322kts
13-Feb-18 19:24 39.781064 -105.082616 276 19371ft 326kts
13-Feb-18 19:25 39.795195 -105.200271 269 22007ft 332kts
13-Feb-18 19:26 39.772805 -105.316000 253 24310ft 336kts
13-Feb-18 19:27 39.747597 -105.434140 254 26406ft 343kts
13-Feb-18 19:28 39.721650 -105.554316 254 28274ft 349kts
13-Feb-18 19:29 39.697232 -105.676473 258 30157ft 350kts
13-Feb-18 19:30 39.686467 -105.778386 260 31915ft 342kts
13-Feb-18 19:31 39.671482 -105.915089 260 33977ft 332kts
13-Feb-18 19:34 39.630675 -106.275827 260 36274ft 366kts
13-Feb-18 19:35 39.605820 -106.380557 248 36281ft 367kts
13-Feb-18 19:36 39.559696 -106.522468 248 36298ft 367kts
13-Feb-18 19:37 39.527030 -106.623991 248 36300ft 367kts
13-Feb-18 19:38 39.481406 -106.764960 248 36309ft 367kts
13-Feb-18 19:39 39.448453 -106.866552 248 36304ft 367kts
13-Feb-18 19:40 39.406504 -106.985928 245 36299ft 366kts
13-Feb-18 19:43 39.272691 -107.338723 245 36290ft 365kts
13-Feb-18 19:44 39.228233 -107.456348 245 36303ft 365kts
13-Feb-18 19:45 39.184021 -107.573694 245 36308ft 365kts
13-Feb-18 19:46 39.140046 -107.690541 245 36324ft 365kts
13-Feb-18 19:47 39.095907 -107.808075 245 36325ft 365kts
13-Feb-18 19:48 39.052062 -107.925362 245 36326ft 365kts
13-Feb-18 19:49 39.008351 -108.042635 245 36325ft 363kts
13-Feb-18 19:50 38.964938 -108.159419 245 36323ft 360kts
13-Feb-18 19:51 38.924325 -108.268967 245 36320ft 357kts
13-Feb-18 19:52 38.882414 -108.382315 244 36326ft 355kts
13-Feb-18 19:53 38.840226 -108.496709 245 36324ft 355kts
13-Feb-18 19:54 38.798103 -108.611247 245 36322ft 355kts
13-Feb-18 19:55 38.757190 -108.722477 244 36337ft 355kts
13-Feb-18 19:56 38.715350 -108.836708 244 36334ft 355kts
13-Feb-18 19:57 38.673621 -108.951077 244 36335ft 355kts
13-Feb-18 19:58 38.632106 -109.065206 244 36319ft 355kts
13-Feb-18 19:59 38.590560 -109.179718 244 36297ft 355kts
13-Feb-18 20:00 38.549233 -109.293917 244 36289ft 355kts
13-Feb-18 20:01 38.507898 -109.408453 244 36289ft 355kts
13-Feb-18 20:02 38.466787 -109.522685 244 36283ft 355kts
13-Feb-18 20:03 38.425699 -109.637167 244 36281ft 355kts
13-Feb-18 20:04 38.385344 -109.749508 244 36295ft 355kts
13-Feb-18 20:05 38.344501 -109.863831 244 36293ft 355kts
13-Feb-18 20:06 38.303726 -109.978362 244 36293ft 355kts
13-Feb-18 20:07 38.260795 -110.090973 241 36303ft 355kts
13-Feb-18 20:08 38.213075 -110.200882 241 36313ft 355kts
13-Feb-18 20:09 38.165585 -110.310651 241 36311ft 355kts
13-Feb-18 20:10 38.118157 -110.420545 241 36308ft 355kts
13-Feb-18 20:11 38.070933 -110.530210 241 36306ft 355kts
13-Feb-18 20:12 38.023705 -110.640128 241 36304ft 355kts
13-Feb-18 20:13 37.977573 -110.747382 241 36318ft 355kts
13-Feb-18 20:14 37.930527 -110.857277 241 36316ft 355kts
13-Feb-18 20:15 37.884501 -110.965110 241 36325ft 356kts
13-Feb-18 20:16 37.837581 -111.075272 241 36323ft 357kts
13-Feb-18 20:17 37.790478 -111.186091 241 36318ft 358kts
13-Feb-18 20:18 37.743651 -111.296522 241 36306ft 358kts
13-Feb-18 20:19 37.696867 -111.407085 241 36292ft 358kts
13-Feb-18 20:20 37.649998 -111.518122 241 36291ft 358kts
13-Feb-18 20:21 37.603582 -111.628303 241 36292ft 358kts
13-Feb-18 20:22 37.557347 -111.737999 241 36304ft 358kts
13-Feb-18 20:23 37.510977 -111.848472 241 36307ft 358kts
13-Feb-18 20:24 37.454809 -111.951211 234 36303ft 358kts
13-Feb-18 20:25 37.395612 -112.051823 234 36301ft 358kts
13-Feb-18 20:26 37.336587 -112.152258 234 36298ft 358kts
13-Feb-18 20:27 37.277474 -112.252279 234 36297ft 358kts
13-Feb-18 20:28 37.218249 -112.352534 234 36293ft 358kts
13-Feb-18 20:29 37.159215 -112.452594 234 36296ft 358kts
13-Feb-18 20:30 37.100296 -112.552609 234 36297ft 358kts
13-Feb-18 20:31 37.041764 -112.651989 233 36295ft 361kts
13-Feb-18 20:32 36.981332 -112.752349 232 36307ft 363kts
13-Feb-18 20:33 36.920558 -112.853220 232 36304ft 363kts
13-Feb-18 20:34 36.860656 -112.952787 232 36317ft 362kts
13-Feb-18 20:35 36.800952 -113.052185 231 36315ft 359kts
13-Feb-18 20:36 36.741042 -113.152025 231 36312ft 359kts
13-Feb-18 20:37 36.681361 -113.251649 232 36310ft 359kts
13-Feb-18 20:38 36.621811 -113.351234 232 36302ft 359kts
13-Feb-18 20:39 36.563907 -113.452605 233 36288ft 360kts
13-Feb-18 20:40 36.505834 -113.553417 233 36276ft 359kts
13-Feb-18 20:41 36.448403 -113.653096 232 36274ft 359kts
13-Feb-18 20:42 36.392341 -113.750257 232 36285ft 359kts
13-Feb-18 20:43 36.334383 -113.851087 232 36283ft 360kts
13-Feb-18 20:44 36.276485 -113.951998 233 36274ft 359kts
13-Feb-18 20:45 36.218759 -114.052765 233 36255ft 359kts
13-Feb-18 20:46 36.161513 -114.152838 233 36240ft 359kts
13-Feb-18 20:47 36.103553 -114.254312 233 36237ft 360kts
13-Feb-18 20:48 36.040190 -114.349238 227 36235ft 359kts
13-Feb-18 20:49 35.973507 -114.440376 227 36232ft 359kts
13-Feb-18 20:50 35.906759 -114.532112 227 36230ft 359kts
13-Feb-18 20:51 35.840970 -114.622665 228 36244ft 359kts
13-Feb-18 20:52 35.775049 -114.713308 227 36256ft 359kts
13-Feb-18 20:53 35.708790 -114.804618 227 36253ft 359kts
13-Feb-18 20:54 35.642451 -114.896014 227 36249ft 359kts
13-Feb-18 20:55 35.575840 -114.986926 227 36249ft 359kts
13-Feb-18 20:56 35.509859 -115.077041 227 36255ft 360kts
13-Feb-18 20:57 35.440591 -115.167849 226 36256ft 362kts
13-Feb-18 20:58 35.371770 -115.257561 226 36259ft 362kts
13-Feb-18 20:59 35.302828 -115.347252 226 36251ft 362kts
13-Feb-18 21:00 35.233968 -115.436623 226 36253ft 362kts
13-Feb-18 21:01 35.164808 -115.526135 226 36245ft 362kts
13-Feb-18 21:02 35.095788 -115.615167 226 36241ft 362kts
13-Feb-18 21:03 35.030789 -115.698510 225 36258ft 362kts
13-Feb-18 21:04 34.961287 -115.787461 225 36250ft 364kts
13-Feb-18 21:05 34.892500 -115.875356 224 36263ft 366kts
13-Feb-18 21:06 34.828391 -115.957096 224 36274ft 366kts
13-Feb-18 21:07 34.758055 -116.046539 225 36270ft 365kts
13-Feb-18 21:08 34.694279 -116.127498 224 35799ft 318kts
13-Feb-18 21:09 34.632312 -116.205868 225 34216ft 324kts
13-Feb-18 21:10 34.569450 -116.285241 224 32595ft 332kts
13-Feb-18 21:11 34.504817 -116.366639 224 30925ft 339kts
13-Feb-18 21:12 34.438613 -116.449819 224 29209ft 349kts
13-Feb-18 21:13 34.386553 -116.548931 239 27439ft 354kts
13-Feb-18 21:14 34.343963 -116.654032 238 25673ft 348kts
13-Feb-18 21:15 34.307386 -116.744253 239 24182ft 344kts
13-Feb-18 21:16 34.266173 -116.846747 239 22484ft 339kts
13-Feb-18 21:17 34.225221 -116.948158 238 20803ft 336kts
13-Feb-18 21:18 34.192580 -117.050232 246 19181ft 341kts
13-Feb-18 21:19 34.163565 -117.158699 246 17487ft 339kts
13-Feb-18 21:20 34.134337 -117.265076 246 15625ft 332kts
13-Feb-18 21:21 34.105362 -117.370032 247 14028ft 326kts
13-Feb-18 21:22 34.079284 -117.473867 249 12367ft 322kts
13-Feb-18 21:23 34.047568 -117.570494 243 11057ft 308kts
13-Feb-18 21:24 34.015183 -117.659827 243 10000ft 281kts
13-Feb-18 21:25 34.001872 -117.736340 263 8987ft 272kts
13-Feb-18 21:26 33.993434 -117.825793 262 7928ft 290kts
13-Feb-18 21:27 33.984432 -117.916885 262 6875ft 270kts
13-Feb-18 21:28 33.976605 -117.995823 263 5835ft 236kts
13-Feb-18 21:29 33.969608 -118.066133 263 4802ft 218kts
13-Feb-18 21:30 33.962533 -118.136696 263 3994ft 211kts
13-Feb-18 21:31 33.955968 -118.201616 263 3119ft 202kts
13-Feb-18 21:32 33.949763 -118.262335 263 2110ft 160kts
13-Feb-18 21:33 33.944959 -118.309421 263 1336ft 135kts
13-Feb-18 21:34 33.940394 -118.354223 263 649ft 135kts
13-Feb-18 21:35 33.936055 -118.395995 261 110ft 57kts
13-Feb-18 21:36 33.936187 -118.404924 261 110ft 7kts
13-Feb-18 21:37 33.937630 -118.409085 353 110ft 22kts
13-Feb-18 21:38 33.939073 -118.405162 82 110ft 20kts
13-Feb-18 21:39 33.940147 -118.398272 4 110ft 9kts
13-Feb-18 21:40 33.942209 -118.399104 266 110ft 0kts
13-Feb-18 21:41 33.942209 -118.399104 266 110ft 0kts

Navigation Log

Ident Type
Flight plan parsing failed, navigation log unavailable